Time,TemperatureF,DewpointF,PressureIn,WindDirection,WindDirectionDegrees,WindSpeedMPH,WindSpeedGustMPH,Humidity,HourlyPrecipIn,Conditions,Clouds,dailyrainin,SoftwareType,DateUTC
2013-05-03 00:38:00,61.6,46.8,29.92,South,180,0.0,0.0,58,0.00,,,0.00,WUHU21623XXSP,2013-05-03 04:38:00,
2013-05-03 01:38:00,60.9,46.6,29.91,SSE,158,0.0,0.0,59,0.00,,,0.00,WUHU21623XXSP,2013-05-03 05:38:00,
2013-05-03 02:38:00,60.0,45.8,29.90,SE,135,0.0,0.0,59,0.00,,,0.00,WUHU21623XXSP,2013-05-03 06:38:00,
2013-05-03 03:38:00,59.5,44.4,29.88,East,90,0.0,0.0,57,0.00,,,0.00,WUHU21623XXSP,2013-05-03 07:38:00,
2013-05-03 04:38:00,58.2,43.6,29.88,East,90,0.0,0.0,58,0.00,,,0.00,WUHU21623XXSP,2013-05-03 08:38:00,
2013-05-03 05:38:00,57.5,42.0,29.88,ESE,113,0.0,0.0,56,0.00,,,0.00,WUHU21623XXSP,2013-05-03 09:38:00,
2013-05-03 06:38:00,56.2,41.3,29.89,East,90,0.0,0.0,57,0.00,,,0.00,WUHU21623XXSP,2013-05-03 10:38:00,
2013-05-03 07:38:00,61.6,44.9,29.89,SE,135,0.0,0.0,54,0.00,,,0.00,WUHU21623XXSP,2013-05-03 11:38:00,
2013-05-03 08:38:00,63.1,45.2,29.90,SSE,158,0.0,0.0,52,0.00,,,0.00,WUHU21623XXSP,2013-05-03 12:38:00,
2013-05-03 09:38:00,66.7,48.1,29.89,South,180,5.4,5.4,51,0.00,,,0.00,WUHU21623XXSP,2013-05-03 13:38:00,
2013-05-03 10:20:00,69.7,51.4,29.89,South,180,4.3,4.3,52,0.00,,,0.00,WUHU21623XXSP,2013-05-03 14:20:00,
2013-05-03 10:25:00,70.6,51.7,29.89,SSW,202,0.0,4.3,51,0.00,,,0.00,WUHU21623XXSP,2013-05-03 14:25:00,
2013-05-03 10:30:00,71.2,52.2,29.89,South,180,3.8,3.8,51,0.00,,,0.00,WUHU21623XXSP,2013-05-03 14:30:00,
2013-05-03 10:35:00,71.7,52.7,29.89,South,180,7.2,7.2,51,0.00,,,0.00,WUHU21623XXSP,2013-05-03 14:35:00,
2013-05-03 10:40:00,72.3,53.2,29.89,South,180,1.1,7.2,51,0.00,,,0.00,WUHU21623XXSP,2013-05-03 14:40:00,
2013-05-03 10:46:00,73.0,53.9,29.89,SSW,202,5.1,5.1,51,0.00,,,0.00,WUHU21623XXSP,2013-05-03 14:46:00,
2013-05-03 10:51:00,73.5,54.4,29.89,ESE,112,0.0,5.1,51,0.00,,,0.00,WUHU21623XXSP,2013-05-03 14:51:00,
2013-05-03 10:56:00,73.9,54.2,29.89,SE,135,0.0,0.0,50,0.00,,,0.00,WUHU21623XXSP,2013-05-03 14:56:00,
2013-05-03 11:01:00,74.1,54.4,29.89,SSW,202,6.3,6.3,50,0.00,,,0.00,WUHU21623XXSP,2013-05-03 15:01:00,
2013-05-03 11:06:00,74.4,55.2,29.89,SSE,157,3.6,6.3,51,0.00,,,0.00,WUHU21623XXSP,2013-05-03 15:06:00,
2013-05-03 11:11:00,74.6,54.8,29.89,SSE,157,0.0,3.6,50,0.00,,,0.00,WUHU21623XXSP,2013-05-03 15:11:00,
2013-05-03 11:16:00,74.8,54.4,29.89,SSE,157,0.0,0.0,49,0.00,,,0.00,WUHU21623XXSP,2013-05-03 15:16:00,
2013-05-03 11:21:00,74.8,54.4,29.89,ESE,112,0.0,0.0,49,0.00,,,0.00,WUHU21623XXSP,2013-05-03 15:21:00,
2013-05-03 11:26:00,74.8,54.4,29.88,East,90,0.0,0.0,49,0.00,,,0.00,WUHU21623XXSP,2013-05-03 15:26:00,
2013-05-03 11:31:00,75.3,56.0,29.88,SSE,157,0.0,8.9,51,0.00,,,0.00,WUHU21623XXSP,2013-05-03 15:31:00,
2013-05-03 11:36:00,76.0,56.7,29.88,SSE,157,0.0,8.9,51,0.00,,,0.00,WUHU21623XXSP,2013-05-03 15:36:00,
2013-05-03 11:41:00,76.2,56.3,29.89,SSE,157,0.0,0.0,50,0.00,,,0.00,WUHU21623XXSP,2013-05-03 15:41:00,
2013-05-03 11:46:00,76.4,55.9,29.89,SE,135,0.0,0.0,49,0.00,,,0.00,WUHU21623XXSP,2013-05-03 15:46:00,
2013-05-03 11:51:00,76.2,56.3,29.89,South,180,3.4,3.4,50,0.00,,,0.00,WUHU21623XXSP,2013-05-03 15:51:00,
2013-05-03 11:56:00,76.6,56.7,29.88,SW,225,0.0,3.4,50,0.00,,,0.00,WUHU21623XXSP,2013-05-03 15:56:00,
2013-05-03 12:05:00,77.1,57.1,29.88,South,180,4.3,4.3,50,0.00,,,0.00,WUHU21623XXSP,2013-05-03 16:05:00,
2013-05-03 12:10:00,77.5,57.5,29.88,SSE,157,0.0,4.3,50,0.00,,,0.00,WUHU21623XXSP,2013-05-03 16:10:00,
2013-05-03 12:15:00,77.5,57.5,29.88,SSW,202,5.4,5.4,50,0.00,,,0.00,WUHU21623XXSP,2013-05-03 16:15:00,
2013-05-03 12:20:00,77.7,57.1,29.87,East,90,0.0,5.4,49,0.00,,,0.00,WUHU21623XXSP,2013-05-03 16:20:00,
2013-05-03 12:25:00,77.8,56.6,29.87,South,180,4.7,5.6,48,0.00,,,0.00,WUHU21623XXSP,2013-05-03 16:25:00,
2013-05-03 12:30:00,78.0,56.8,29.87,SSE,157,3.8,5.6,48,0.00,,,0.00,WUHU21623XXSP,2013-05-03 16:30:00,
2013-05-03 12:35:00,78.0,57.4,29.87,SSW,202,0.0,3.8,49,0.00,,,0.00,WUHU21623XXSP,2013-05-03 16:35:00,
2013-05-03 12:40:00,78.2,57.6,29.87,SSE,157,3.6,3.6,49,0.00,,,0.00,WUHU21623XXSP,2013-05-03 16:40:00,
2013-05-03 12:45:00,78.2,57.0,29.87,SSE,157,0.0,3.6,48,0.00,,,0.00,WUHU21623XXSP,2013-05-03 16:45:00,
2013-05-03 12:50:00,78.2,57.0,29.87,South,180,6.7,6.7,48,0.00,,,0.00,WUHU21623XXSP,2013-05-03 16:50:00,
2013-05-03 12:55:00,78.4,57.2,29.87,ENE,67,0.0,6.7,48,0.00,,,0.00,WUHU21623XXSP,2013-05-03 16:55:00,
2013-05-03 13:00:00,78.7,56.8,29.87,SSE,157,1.3,6.7,47,0.00,,,0.00,WUHU21623XXSP,2013-05-03 17:00:00,
2013-05-03 13:05:00,78.9,57.0,29.87,SE,135,0.0,1.3,47,0.00,,,0.00,WUHU21623XXSP,2013-05-03 17:05:00,
2013-05-03 13:10:00,79.3,57.4,29.86,SE,135,4.3,4.3,47,0.00,,,0.00,WUHU21623XXSP,2013-05-03 17:10:00,
2013-05-03 13:15:00,79.3,56.8,29.87,South,180,6.3,6.3,46,0.00,,,0.00,WUHU21623XXSP,2013-05-03 17:15:00,
2013-05-03 13:20:00,78.9,56.4,29.87,SSE,157,0.0,6.3,46,0.00,,,0.00,WUHU21623XXSP,2013-05-03 17:20:00,
2013-05-03 13:25:00,78.9,57.0,29.86,SSE,157,4.9,4.9,47,0.00,,,0.00,WUHU21623XXSP,2013-05-03 17:25:00,
2013-05-03 13:31:00,78.9,56.4,29.86,South,180,3.6,4.9,46,0.00,,,0.00,WUHU21623XXSP,2013-05-03 17:31:00,
2013-05-03 13:36:00,78.9,57.0,29.86,ESE,112,6.7,6.7,47,0.00,,,0.00,WUHU21623XXSP,2013-05-03 17:36:00,
2013-05-03 13:41:00,78.9,56.4,29.86,SSE,157,2.7,6.7,46,0.00,,,0.00,WUHU21623XXSP,2013-05-03 17:41:00,
2013-05-03 13:50:00,78.4,55.9,29.86,ENE,67,4.7,4.7,46,0.00,,,0.00,WUHU21623XXSP,2013-05-03 17:50:00,
2013-05-03 13:55:00,78.7,56.2,29.86,NNE,22,7.2,7.2,46,0.00,,,0.00,WUHU21623XXSP,2013-05-03 17:55:00,
2013-05-03 14:00:00,78.7,55.6,29.86,South,180,4.3,8.3,45,0.00,,,0.00,WUHU21623XXSP,2013-05-03 18:00:00,
2013-05-03 14:05:00,78.4,55.9,29.86,NE,45,0.0,8.3,46,0.00,,,0.00,WUHU21623XXSP,2013-05-03 18:05:00,
2013-05-03 14:11:00,78.0,54.3,29.86,SSE,157,0.0,0.0,44,0.00,,,0.00,WUHU21623XXSP,2013-05-03 18:11:00,
2013-05-03 14:20:00,78.4,55.3,29.86,SSE,157,0.0,0.0,45,0.00,,,0.00,WUHU21623XXSP,2013-05-03 18:20:00,
2013-05-03 14:25:00,78.4,55.9,29.86,SSE,157,0.0,0.0,46,0.00,,,0.00,WUHU21623XXSP,2013-05-03 18:25:00,
2013-05-03 14:30:00,78.7,55.6,29.86,South,180,6.5,6.9,45,0.00,,,0.00,WUHU21623XXSP,2013-05-03 18:30:00,
2013-05-03 14:35:00,79.6,56.4,29.86,SSW,202,6.5,6.9,45,0.00,,,0.00,WUHU21623XXSP,2013-05-03 18:35:00,
2013-05-03 14:40:00,79.6,55.8,29.86,SSE,157,0.0,6.5,44,0.00,,,0.00,WUHU21623XXSP,2013-05-03 18:40:00,
2013-05-03 14:45:00,79.8,56.6,29.86,South,180,0.0,0.0,45,0.00,,,0.00,WUHU21623XXSP,2013-05-03 18:45:00,
2013-05-03 14:50:00,80.5,55.9,29.86,SSW,202,3.1,4.0,43,0.00,,,0.00,WUHU21623XXSP,2013-05-03 18:50:00,
2013-05-03 14:55:00,80.5,56.6,29.86,SSE,157,1.6,4.0,44,0.00,,,0.00,WUHU21623XXSP,2013-05-03 18:55:00,
2013-05-03 15:00:00,80.4,56.5,29.86,ENE,67,0.0,1.6,44,0.00,,,0.00,WUHU21623XXSP,2013-05-03 19:00:00,
2013-05-03 15:05:00,80.2,56.3,29.86,SE,135,6.7,6.7,44,0.00,,,0.00,WUHU21623XXSP,2013-05-03 19:05:00,
2013-05-03 15:10:00,80.2,57.0,29.86,SSE,157,5.1,6.7,45,0.00,,,0.00,WUHU21623XXSP,2013-05-03 19:10:00,
2013-05-03 15:15:00,79.8,56.6,29.86,SSE,157,0.0,5.1,45,0.00,,,0.00,WUHU21623XXSP,2013-05-03 19:15:00,
2013-05-03 15:20:00,79.6,56.4,29.86,SE,135,3.1,3.1,45,0.00,,,0.00,WUHU21623XXSP,2013-05-03 19:20:00,
2013-05-03 15:25:00,79.6,55.1,29.86,SSE,157,0.0,3.1,43,0.00,,,0.00,WUHU21623XXSP,2013-05-03 19:25:00,
2013-05-03 15:30:00,79.3,56.1,29.86,SSW,202,7.4,7.4,45,0.00,,,0.00,WUHU21623XXSP,2013-05-03 19:30:00,
2013-05-03 15:35:00,79.3,55.5,29.86,ENE,67,7.6,7.6,44,0.00,,,0.00,WUHU21623XXSP,2013-05-03 19:35:00,
2013-05-03 15:40:00,79.3,55.5,29.86,SSE,157,7.6,7.6,44,0.00,,,0.00,WUHU21623XXSP,2013-05-03 19:40:00,
2013-05-03 15:45:00,79.3,55.5,29.86,SE,135,3.6,7.6,44,0.00,,,0.00,WUHU21623XXSP,2013-05-03 19:45:00,
2013-05-03 15:50:00,78.9,54.5,29.86,East,90,0.0,3.6,43,0.00,,,0.00,WUHU21623XXSP,2013-05-03 19:50:00,
2013-05-03 15:55:00,78.4,54.7,29.86,East,90,0.0,0.0,44,0.00,,,0.00,WUHU21623XXSP,2013-05-03 19:55:00,
2013-05-03 16:00:00,78.0,55.6,29.85,NE,45,6.7,6.7,46,0.00,,,0.00,WUHU21623XXSP,2013-05-03 20:00:00,
2013-05-03 16:05:00,77.8,54.1,29.85,SSE,157,0.0,6.7,44,0.00,,,0.00,WUHU21623XXSP,2013-05-03 20:05:00,
2013-05-03 16:11:00,77.1,54.1,29.85,South,180,6.3,6.3,45,0.00,,,0.00,WUHU21623XXSP,2013-05-03 20:11:00,
2013-05-03 16:16:00,77.1,54.1,29.85,South,180,7.2,7.2,45,0.00,,,0.00,WUHU21623XXSP,2013-05-03 20:16:00,
2013-05-03 16:21:00,77.1,54.1,29.85,SSE,157,8.5,8.5,45,0.00,,,0.00,WUHU21623XXSP,2013-05-03 20:21:00,
2013-05-03 16:26:00,77.8,55.4,29.84,NE,45,5.6,8.5,46,0.00,,,0.00,WUHU21623XXSP,2013-05-03 20:26:00,
2013-05-03 16:31:00,78.0,54.3,29.85,South,180,8.7,8.7,44,0.00,,,0.00,WUHU21623XXSP,2013-05-03 20:31:00,
2013-05-03 16:36:00,78.0,54.9,29.84,SSE,157,7.2,8.7,45,0.00,,,0.00,WUHU21623XXSP,2013-05-03 20:36:00,
2013-05-03 16:41:00,78.2,55.1,29.85,ENE,67,0.0,7.2,45,0.00,,,0.00,WUHU21623XXSP,2013-05-03 20:41:00,
2013-05-03 16:46:00,78.4,54.7,29.84,SE,135,3.8,3.8,44,0.00,,,0.00,WUHU21623XXSP,2013-05-03 20:46:00,
2013-05-03 16:51:00,78.2,55.1,29.84,SSE,157,6.9,6.9,45,0.00,,,0.00,WUHU21623XXSP,2013-05-03 20:51:00,
2013-05-03 16:56:00,78.2,55.1,29.84,NE,45,0.0,6.9,45,0.00,,,0.00,WUHU21623XXSP,2013-05-03 20:56:00,
2013-05-03 17:01:00,77.8,54.1,29.84,SE,135,7.4,7.4,44,0.00,,,0.00,WUHU21623XXSP,2013-05-03 21:01:00,
2013-05-03 17:06:00,77.7,54.0,29.84,SSE,157,0.0,7.4,44,0.00,,,0.00,WUHU21623XXSP,2013-05-03 21:06:00,
2013-05-03 17:11:00,77.3,54.3,29.84,SSE,157,6.9,9.6,45,0.00,,,0.00,WUHU21623XXSP,2013-05-03 21:11:00,
2013-05-03 17:16:00,77.1,53.5,29.85,South,180,8.1,9.6,44,0.00,,,0.00,WUHU21623XXSP,2013-05-03 21:16:00,
2013-05-03 17:21:00,77.1,54.1,29.85,South,180,3.8,8.1,45,0.00,,,0.00,WUHU21623XXSP,2013-05-03 21:21:00,
2013-05-03 17:26:00,77.1,54.1,29.85,WSW,247,0.0,3.8,45,0.00,,,0.00,WUHU21623XXSP,2013-05-03 21:26:00,
2013-05-03 17:31:00,77.1,54.1,29.85,SSW,202,3.4,3.4,45,0.00,,,0.00,WUHU21623XXSP,2013-05-03 21:31:00,
2013-05-03 17:36:00,76.9,53.9,29.85,SE,135,1.6,10.1,45,0.00,,,0.00,WUHU21623XXSP,2013-05-03 21:36:00,
2013-05-03 17:41:00,76.6,53.7,29.84,SSE,157,4.0,10.1,45,0.00,,,0.00,WUHU21623XXSP,2013-05-03 21:41:00,
2013-05-03 17:46:00,76.6,53.7,29.84,ESE,112,0.0,4.0,45,0.00,,,0.00,WUHU21623XXSP,2013-05-03 21:46:00,
2013-05-03 17:51:00,76.4,53.5,29.84,SSE,157,0.0,0.0,45,0.00,,,0.00,WUHU21623XXSP,2013-05-03 21:51:00,
2013-05-03 17:56:00,76.4,53.5,29.84,South,180,7.6,7.6,45,0.00,,,0.00,WUHU21623XXSP,2013-05-03 21:56:00,
2013-05-03 18:01:00,76.4,53.5,29.85,SSE,157,6.9,7.6,45,0.00,,,0.00,WUHU21623XXSP,2013-05-03 22:01:00,
2013-05-03 18:06:00,76.2,52.7,29.85,SW,225,8.1,8.1,44,0.00,,,0.00,WUHU21623XXSP,2013-05-03 22:06:00,
2013-05-03 18:11:00,76.0,52.5,29.85,ENE,67,13.9,13.9,44,0.00,,,0.00,WUHU21623XXSP,2013-05-03 22:11:00,
2013-05-03 18:16:00,75.7,51.6,29.85,ESE,112,3.1,13.9,43,0.00,,,0.00,WUHU21623XXSP,2013-05-03 22:16:00,
2013-05-03 18:21:00,75.7,51.6,29.85,North,0,6.0,6.0,43,0.00,,,0.00,WUHU21623XXSP,2013-05-03 22:21:00,
2013-05-03 18:26:00,75.3,51.2,29.85,SSE,157,0.0,6.0,43,0.00,,,0.00,WUHU21623XXSP,2013-05-03 22:26:00,
2013-05-03 18:31:00,75.1,51.0,29.85,SSE,157,6.0,6.0,43,0.00,,,0.00,WUHU21623XXSP,2013-05-03 22:31:00,
2013-05-03 18:36:00,74.8,50.8,29.85,SSW,202,0.0,6.0,43,0.00,,,0.00,WUHU21623XXSP,2013-05-03 22:36:00,
2013-05-03 18:41:00,74.6,49.9,29.85,South,180,0.0,0.0,42,0.00,,,0.00,WUHU21623XXSP,2013-05-03 22:41:00,
2013-05-03 18:46:00,74.4,49.7,29.85,South,180,3.6,3.6,42,0.00,,,0.00,WUHU21623XXSP,2013-05-03 22:46:00,
2013-05-03 18:51:00,74.2,49.6,29.85,SSE,157,6.0,6.0,42,0.00,,,0.00,WUHU21623XXSP,2013-05-03 22:51:00,
2013-05-03 18:56:00,73.9,48.6,29.85,ENE,67,0.0,6.0,41,0.00,,,0.00,WUHU21623XXSP,2013-05-03 22:56:00,
2013-05-03 19:01:00,73.5,47.6,29.85,SE,135,3.4,3.4,40,0.00,,,0.00,WUHU21623XXSP,2013-05-03 23:01:00,
2013-05-03 19:06:00,73.3,46.7,29.85,ENE,67,0.0,3.4,39,0.00,,,0.00,WUHU21623XXSP,2013-05-03 23:06:00,
2013-05-03 19:11:00,73.0,46.5,29.85,NE,45,5.6,5.6,39,0.00,,,0.00,WUHU21623XXSP,2013-05-03 23:11:00,
2013-05-03 19:16:00,72.6,45.4,29.85,SE,135,3.6,5.6,38,0.00,,,0.00,WUHU21623XXSP,2013-05-03 23:16:00,
2013-05-03 19:22:00,72.4,44.5,29.85,SSE,157,0.0,3.6,37,0.00,,,0.00,WUHU21623XXSP,2013-05-03 23:22:00,
2013-05-03 19:27:00,71.7,42.4,29.86,NE,45,9.2,9.2,35,0.00,,,0.00,WUHU21623XXSP,2013-05-03 23:27:00,
2013-05-03 19:34:00,71.5,39.9,29.85,SSE,157,0.0,9.2,32,0.00,,,0.00,WUHU21623XXSP,2013-05-03 23:34:00,
2013-05-03 19:39:00,71.4,39.8,29.86,NE,45,0.0,0.0,32,0.00,,,0.00,WUHU21623XXSP,2013-05-03 23:39:00,
2013-05-03 19:45:00,70.8,39.3,29.86,South,180,1.8,1.8,32,0.00,,,0.00,WUHU21623XXSP,2013-05-03 23:45:00,
2013-05-03 19:50:00,70.6,39.1,29.86,SSE,157,0.0,1.8,32,0.00,,,0.00,WUHU21623XXSP,2013-05-03 23:50:00,
2013-05-03 19:55:00,70.3,38.9,29.86,East,90,0.0,0.0,32,0.00,,,0.00,WUHU21623XXSP,2013-05-03 23:55:00,
2013-05-03 20:00:00,69.9,39.3,29.86,SE,135,0.0,0.0,33,0.00,,,0.00,WUHU21623XXSP,2013-05-04 00:00:00,
2013-05-03 20:05:00,69.7,39.1,29.86,SSW,202,0.0,0.0,33,0.00,,,0.00,WUHU21623XXSP,2013-05-04 00:05:00,
2013-05-03 20:10:00,69.4,38.9,29.86,SW,225,0.0,0.0,33,0.00,,,0.00,WUHU21623XXSP,2013-05-04 00:10:00,
2013-05-03 20:15:00,69.0,38.5,29.86,SE,135,0.0,0.0,33,0.00,,,0.00,WUHU21623XXSP,2013-05-04 00:15:00,
2013-05-03 20:20:00,68.7,38.2,29.86,ESE,112,0.0,0.0,33,0.00,,,0.00,WUHU21623XXSP,2013-05-04 00:20:00,
2013-05-03 20:25:00,68.3,37.9,29.86,South,180,0.0,0.0,33,0.00,,,0.00,WUHU21623XXSP,2013-05-04 00:25:00,
2013-05-03 20:30:00,67.9,37.5,29.86,SSE,157,0.0,0.0,33,0.00,,,0.00,WUHU21623XXSP,2013-05-04 00:30:00,
2013-05-03 20:35:00,67.9,37.5,29.86,East,90,0.0,0.0,33,0.00,,,0.00,WUHU21623XXSP,2013-05-04 00:35:00,
2013-05-03 20:41:00,67.2,36.9,29.86,ESE,112,0.0,0.0,33,0.00,,,0.00,WUHU21623XXSP,2013-05-04 00:41:00,
2013-05-03 20:46:00,66.9,36.7,29.87,NE,45,0.0,0.0,33,0.00,,,0.00,WUHU21623XXSP,2013-05-04 00:46:00,
2013-05-03 20:50:00,66.3,36.1,29.87,ENE,67,0.0,0.0,33,0.00,,,0.00,WUHU21623XXSP,2013-05-04 00:50:00,
2013-05-03 20:55:00,66.1,36.0,29.87,East,90,0.0,0.0,33,0.00,,,0.00,WUHU21623XXSP,2013-05-04 00:55:00,
2013-05-03 21:00:00,66.1,36.0,29.87,ESE,112,0.0,0.0,33,0.00,,,0.00,WUHU21623XXSP,2013-05-04 01:00:00,
2013-05-03 21:05:00,65.8,35.7,29.87,ENE,67,0.0,0.0,33,0.00,,,0.00,WUHU21623XXSP,2013-05-04 01:05:00,
2013-05-03 21:15:00,65.2,35.9,29.88,SSE,157,0.0,0.0,34,0.00,,,0.00,WUHU21623XXSP,2013-05-04 01:15:00,
2013-05-03 21:20:00,65.1,35.8,29.88,SSE,157,0.0,0.0,34,0.00,,,0.00,WUHU21623XXSP,2013-05-04 01:20:00,
2013-05-03 21:25:00,64.9,36.4,29.88,SSE,157,0.0,0.0,35,0.00,,,0.00,WUHU21623XXSP,2013-05-04 01:25:00,
2013-05-03 21:30:00,64.5,36.0,29.88,ESE,112,0.0,0.0,35,0.00,,,0.00,WUHU21623XXSP,2013-05-04 01:30:00,
2013-05-03 21:35:00,64.5,36.0,29.88,ESE,112,0.0,0.0,35,0.00,,,0.00,WUHU21623XXSP,2013-05-04 01:35:00,
2013-05-03 21:40:00,64.3,35.9,29.88,ESE,112,0.0,0.0,35,0.00,,,0.00,WUHU21623XXSP,2013-05-04 01:40:00,
2013-05-03 21:45:00,64.2,36.5,29.88,East,90,0.0,0.0,36,0.00,,,0.00,WUHU21623XXSP,2013-05-04 01:45:00,
2013-05-03 21:51:00,64.0,36.3,29.88,ESE,112,0.0,0.0,36,0.00,,,0.00,WUHU21623XXSP,2013-05-04 01:51:00,
2013-05-03 21:56:00,64.0,36.3,29.88,East,90,0.0,0.0,36,0.00,,,0.00,WUHU21623XXSP,2013-05-04 01:56:00,
2013-05-03 22:01:00,63.8,36.1,29.88,East,90,0.0,0.0,36,0.00,,,0.00,WUHU21623XXSP,2013-05-04 02:01:00,
2013-05-03 22:06:00,63.6,36.0,29.88,East,90,0.0,0.0,36,0.00,,,0.00,WUHU21623XXSP,2013-05-04 02:06:00,
2013-05-03 22:11:00,63.4,35.8,29.88,East,90,0.0,0.0,36,0.00,,,0.00,WUHU21623XXSP,2013-05-04 02:11:00,
2013-05-03 22:16:00,63.3,36.4,29.88,East,90,0.0,0.0,37,0.00,,,0.00,WUHU21623XXSP,2013-05-04 02:16:00,
2013-05-03 22:23:00,62.9,36.0,29.88,East,90,0.0,0.0,37,0.00,,,0.00,WUHU21623XXSP,2013-05-04 02:23:00,
2013-05-03 22:30:00,62.7,35.9,29.88,ENE,67,0.0,0.0,37,0.00,,,0.00,WUHU21623XXSP,2013-05-04 02:30:00,
2013-05-03 22:35:00,62.7,36.5,29.88,East,90,0.0,0.0,38,0.00,,,0.00,WUHU21623XXSP,2013-05-04 02:35:00,
2013-05-03 22:40:00,62.5,36.4,29.88,East,90,0.0,0.0,38,0.00,,,0.00,WUHU21623XXSP,2013-05-04 02:40:00,
2013-05-03 22:42:00,62.2,36.8,29.88,ENE,67,0.0,0.0,39,0.00,,,0.00,WUHU21623XXSP,2013-05-04 02:42:00,
2013-05-03 22:49:00,62.2,36.8,29.88,ENE,67,0.0,0.0,39,0.00,,,0.00,WUHU21623XXSP,2013-05-04 02:49:00,
2013-05-03 22:54:00,61.8,37.1,29.87,ESE,112,0.0,0.0,40,0.00,,,0.00,WUHU21623XXSP,2013-05-04 02:54:00,
2013-05-03 23:00:00,61.6,36.9,29.88,ENE,67,0.0,0.0,40,0.00,,,0.00,WUHU21623XXSP,2013-05-04 03:00:00,
2013-05-03 23:05:00,61.5,36.8,29.87,ENE,67,0.0,0.0,40,0.00,,,0.00,WUHU21623XXSP,2013-05-04 03:05:00,
2013-05-03 23:10:00,61.3,37.3,29.88,ENE,67,0.0,0.0,41,0.00,,,0.00,WUHU21623XXSP,2013-05-04 03:10:00,
2013-05-03 23:17:00,60.9,36.9,29.88,ENE,67,0.0,0.0,41,0.00,,,0.00,WUHU21623XXSP,2013-05-04 03:17:00,
2013-05-03 23:22:00,60.9,37.5,29.87,ENE,67,0.0,0.0,42,0.00,,,0.00,WUHU21623XXSP,2013-05-04 03:22:00,
2013-05-03 23:27:00,60.9,37.5,29.88,ENE,67,0.0,0.0,42,0.00,,,0.00,WUHU21623XXSP,2013-05-04 03:27:00,
2013-05-03 23:32:00,60.9,37.5,29.88,ENE,67,0.0,0.0,42,0.00,,,0.00,WUHU21623XXSP,2013-05-04 03:32:00,
2013-05-03 23:38:00,60.7,38.0,29.88,East,90,0.0,0.0,43,0.00,,,0.00,WUHU21623XXSP,2013-05-04 03:38:00,
2013-05-03 23:43:00,60.7,38.0,29.88,East,90,0.0,0.0,43,0.00,,,0.00,WUHU21623XXSP,2013-05-04 03:43:00,
2013-05-03 23:49:00,60.6,38.5,29.88,East,90,0.0,0.0,44,0.00,,,0.00,WUHU21623XXSP,2013-05-04 03:49:00,
2013-05-03 23:55:00,60.4,38.3,29.88,ENE,67,0.0,0.0,44,0.00,,,0.00,WUHU21623XXSP,2013-05-04 03:55:00,